sensor_id;sensor_type;location;lat;lon;timestamp;P1;durP1;ratioP1;P2;durP2;ratioP2
56171;SDS011;42052;41.634;-0.946;2023-03-29T00:02:36;7.15;;;3.70;;
56171;SDS011;42052;41.634;-0.946;2023-03-29T00:05:22;8.85;;;3.60;;
56171;SDS011;42052;41.634;-0.946;2023-03-29T00:08:09;9.25;;;3.58;;
56171;SDS011;42052;41.634;-0.946;2023-03-29T00:10:58;8.68;;;3.90;;
56171;SDS011;42052;41.634;-0.946;2023-03-29T00:13:45;7.20;;;3.47;;
56171;SDS011;42052;41.634;-0.946;2023-03-29T00:16:31;8.02;;;3.65;;
56171;SDS011;42052;41.634;-0.946;2023-03-29T00:19:17;9.05;;;3.75;;
56171;SDS011;42052;41.634;-0.946;2023-03-29T00:22:03;8.02;;;3.50;;
56171;SDS011;42052;41.634;-0.946;2023-03-29T00:24:52;6.80;;;3.25;;
56171;SDS011;42052;41.634;-0.946;2023-03-29T00:27:39;7.32;;;3.22;;
56171;SDS011;42052;41.634;-0.946;2023-03-29T00:30:25;8.80;;;3.22;;
56171;SDS011;42052;41.634;-0.946;2023-03-29T00:33:11;5.60;;;3.15;;
56171;SDS011;42052;41.634;-0.946;2023-03-29T00:35:59;6.82;;;3.22;;
56171;SDS011;42052;41.634;-0.946;2023-03-29T00:38:46;8.80;;;3.53;;
56171;SDS011;42052;41.634;-0.946;2023-03-29T00:41:32;8.00;;;3.67;;
56171;SDS011;42052;41.634;-0.946;2023-03-29T00:53:35;5.40;;;2.75;;
56171;SDS011;42052;41.634;-0.946;2023-03-29T00:59:15;6.30;;;3.15;;
56171;SDS011;42052;41.634;-0.946;2023-03-29T01:02:12;8.00;;;3.47;;
56171;SDS011;42052;41.634;-0.946;2023-03-29T01:05:01;6.05;;;2.75;;
56171;SDS011;42052;41.634;-0.946;2023-03-29T01:07:55;8.02;;;3.22;;
56171;SDS011;42052;41.634;-0.946;2023-03-29T01:10:55;6.18;;;2.70;;
56171;SDS011;42052;41.634;-0.946;2023-03-29T01:14:01;8.55;;;2.97;;
56171;SDS011;42052;41.634;-0.946;2023-03-29T01:16:48;6.22;;;2.67;;
56171;SDS011;42052;41.634;-0.946;2023-03-29T01:19:37;4.60;;;2.60;;
56171;SDS011;42052;41.634;-0.946;2023-03-29T01:28:34;5.75;;;2.70;;
56171;SDS011;42052;41.634;-0.946;2023-03-29T01:31:26;9.65;;;2.78;;
56171;SDS011;42052;41.634;-0.946;2023-03-29T01:34:18;6.03;;;2.38;;
56171;SDS011;42052;41.634;-0.946;2023-03-29T01:37:13;6.97;;;3.10;;
56171;SDS011;42052;41.634;-0.946;2023-03-29T01:40:09;5.93;;;3.03;;
56171;SDS011;42052;41.634;-0.946;2023-03-29T01:43:10;8.88;;;3.10;;
56171;SDS011;42052;41.634;-0.946;2023-03-29T01:46:14;5.82;;;3.13;;
56171;SDS011;42052;41.634;-0.946;2023-03-29T01:49:32;10.05;;;3.58;;
56171;SDS011;42052;41.634;-0.946;2023-03-29T01:52:33;17.40;;;5.10;;
56171;SDS011;42052;41.634;-0.946;2023-03-29T01:55:24;23.48;;;6.13;;
56171;SDS011;42052;41.634;-0.946;2023-03-29T01:58:20;18.52;;;5.57;;
56171;SDS011;42052;41.634;-0.946;2023-03-29T02:01:11;35.55;;;7.43;;
56171;SDS011;42052;41.634;-0.946;2023-03-29T02:04:02;32.63;;;7.00;;
56171;SDS011;42052;41.634;-0.946;2023-03-29T02:06:51;38.38;;;7.63;;
56171;SDS011;42052;41.634;-0.946;2023-03-29T02:09:39;36.33;;;8.30;;
56171;SDS011;42052;41.634;-0.946;2023-03-29T02:12:26;30.40;;;8.02;;
56171;SDS011;42052;41.634;-0.946;2023-03-29T02:15:13;34.78;;;8.20;;
56171;SDS011;42052;41.634;-0.946;2023-03-29T02:18:02;35.22;;;8.07;;
56171;SDS011;42052;41.634;-0.946;2023-03-29T02:20:50;40.90;;;8.50;;
56171;SDS011;42052;41.634;-0.946;2023-03-29T02:23:41;31.08;;;7.60;;
56171;SDS011;42052;41.634;-0.946;2023-03-29T02:26:31;34.88;;;8.02;;
56171;SDS011;42052;41.634;-0.946;2023-03-29T02:29:17;34.13;;;8.50;;
56171;SDS011;42052;41.634;-0.946;2023-03-29T02:32:38;32.42;;;7.82;;
56171;SDS011;42052;41.634;-0.946;2023-03-29T02:35:21;32.70;;;7.65;;
56171;SDS011;42052;41.634;-0.946;2023-03-29T02:38:25;34.65;;;8.05;;
56171;SDS011;42052;41.634;-0.946;2023-03-29T02:41:12;30.67;;;7.72;;
56171;SDS011;42052;41.634;-0.946;2023-03-29T02:44:00;35.70;;;7.43;;
56171;SDS011;42052;41.634;-0.946;2023-03-29T02:46:50;30.38;;;7.50;;
56171;SDS011;42052;41.634;-0.946;2023-03-29T02:49:41;39.15;;;7.50;;
56171;SDS011;42052;41.634;-0.946;2023-03-29T02:52:30;27.23;;;7.05;;
56171;SDS011;42052;41.634;-0.946;2023-03-29T02:55:21;25.90;;;6.70;;
56171;SDS011;42052;41.634;-0.946;2023-03-29T02:58:09;26.77;;;7.10;;
56171;SDS011;42052;41.634;-0.946;2023-03-29T03:00:58;27.85;;;7.22;;
56171;SDS011;42052;41.634;-0.946;2023-03-29T03:03:45;25.83;;;6.85;;
56171;SDS011;42052;41.634;-0.946;2023-03-29T03:06:32;26.77;;;6.90;;
56171;SDS011;42052;41.634;-0.946;2023-03-29T03:09:18;27.08;;;6.07;;
56171;SDS011;42052;41.634;-0.946;2023-03-29T03:12:04;27.10;;;7.05;;
56171;SDS011;42052;41.634;-0.946;2023-03-29T03:14:50;20.83;;;5.88;;
56171;SDS011;42052;41.634;-0.946;2023-03-29T03:17:36;24.38;;;6.47;;
56171;SDS011;42052;41.634;-0.946;2023-03-29T03:20:24;18.98;;;6.05;;
56171;SDS011;42052;41.634;-0.946;2023-03-29T03:23:10;22.00;;;6.25;;
56171;SDS011;42052;41.634;-0.946;2023-03-29T03:25:57;23.40;;;5.45;;
56171;SDS011;42052;41.634;-0.946;2023-03-29T03:28:43;18.50;;;5.75;;
56171;SDS011;42052;41.634;-0.946;2023-03-29T03:31:32;18.40;;;5.50;;
56171;SDS011;42052;41.634;-0.946;2023-03-29T03:34:18;19.75;;;6.03;;
56171;SDS011;42052;41.634;-0.946;2023-03-29T03:37:05;19.63;;;5.70;;
56171;SDS011;42052;41.634;-0.946;2023-03-29T03:39:51;16.90;;;5.65;;
56171;SDS011;42052;41.634;-0.946;2023-03-29T03:42:40;17.58;;;5.50;;
56171;SDS011;42052;41.634;-0.946;2023-03-29T03:45:26;18.48;;;5.50;;
56171;SDS011;42052;41.634;-0.946;2023-03-29T03:48:13;20.58;;;5.35;;
56171;SDS011;42052;41.634;-0.946;2023-03-29T03:50:59;19.70;;;5.13;;
56171;SDS011;42052;41.634;-0.946;2023-03-29T03:53:45;15.18;;;5.30;;
56171;SDS011;42052;41.634;-0.946;2023-03-29T03:56:31;16.75;;;5.43;;
56171;SDS011;42052;41.634;-0.946;2023-03-29T03:59:18;15.32;;;5.10;;
56171;SDS011;42052;41.634;-0.946;2023-03-29T04:02:04;14.23;;;4.80;;
56171;SDS011;42052;41.634;-0.946;2023-03-29T04:04:51;15.80;;;5.10;;
56171;SDS011;42052;41.634;-0.946;2023-03-29T04:07:37;14.32;;;4.50;;
56171;SDS011;42052;41.634;-0.946;2023-03-29T04:10:23;12.55;;;4.22;;
56171;SDS011;42052;41.634;-0.946;2023-03-29T04:13:09;12.40;;;4.32;;
56171;SDS011;42052;41.634;-0.946;2023-03-29T04:15:56;13.25;;;4.40;;
56171;SDS011;42052;41.634;-0.946;2023-03-29T04:18:42;15.90;;;4.95;;
56171;SDS011;42052;41.634;-0.946;2023-03-29T04:21:28;14.77;;;4.63;;
56171;SDS011;42052;41.634;-0.946;2023-03-29T04:24:15;13.40;;;4.88;;
56171;SDS011;42052;41.634;-0.946;2023-03-29T04:27:01;10.25;;;4.30;;
56171;SDS011;42052;41.634;-0.946;2023-03-29T04:29:47;13.77;;;4.38;;
56171;SDS011;42052;41.634;-0.946;2023-03-29T04:32:34;10.02;;;3.95;;
56171;SDS011;42052;41.634;-0.946;2023-03-29T04:35:20;9.52;;;4.35;;
56171;SDS011;42052;41.634;-0.946;2023-03-29T04:38:06;12.43;;;4.07;;
56171;SDS011;42052;41.634;-0.946;2023-03-29T04:40:55;8.68;;;3.83;;
56171;SDS011;42052;41.634;-0.946;2023-03-29T04:43:42;13.85;;;4.43;;
56171;SDS011;42052;41.634;-0.946;2023-03-29T04:46:30;12.00;;;4.30;;
56171;SDS011;42052;41.634;-0.946;2023-03-29T04:49:17;9.05;;;3.80;;
56171;SDS011;42052;41.634;-0.946;2023-03-29T04:52:03;9.90;;;3.35;;
56171;SDS011;42052;41.634;-0.946;2023-03-29T04:54:50;10.52;;;3.80;;
56171;SDS011;42052;41.634;-0.946;2023-03-29T04:57:36;8.95;;;3.72;;
56171;SDS011;42052;41.634;-0.946;2023-03-29T05:00:22;10.15;;;3.80;;
56171;SDS011;42052;41.634;-0.946;2023-03-29T05:03:11;12.63;;;3.90;;
56171;SDS011;42052;41.634;-0.946;2023-03-29T05:06:02;9.13;;;3.50;;
56171;SDS011;42052;41.634;-0.946;2023-03-29T05:08:51;10.00;;;3.37;;
56171;SDS011;42052;41.634;-0.946;2023-03-29T05:11:37;10.60;;;3.53;;
56171;SDS011;42052;41.634;-0.946;2023-03-29T05:14:23;9.52;;;3.70;;
56171;SDS011;42052;41.634;-0.946;2023-03-29T05:17:09;9.38;;;3.22;;
56171;SDS011;42052;41.634;-0.946;2023-03-29T05:19:55;11.15;;;3.47;;
56171;SDS011;42052;41.634;-0.946;2023-03-29T05:22:41;8.77;;;3.55;;
56171;SDS011;42052;41.634;-0.946;2023-03-29T05:25:27;8.25;;;3.33;;
56171;SDS011;42052;41.634;-0.946;2023-03-29T05:28:15;7.22;;;2.90;;
56171;SDS011;42052;41.634;-0.946;2023-03-29T05:31:03;6.80;;;3.13;;
56171;SDS011;42052;41.634;-0.946;2023-03-29T05:33:50;8.63;;;3.40;;
56171;SDS011;42052;41.634;-0.946;2023-03-29T05:36:36;8.70;;;3.03;;
56171;SDS011;42052;41.634;-0.946;2023-03-29T05:39:23;7.32;;;3.05;;
56171;SDS011;42052;41.634;-0.946;2023-03-29T05:42:10;7.35;;;3.10;;
56171;SDS011;42052;41.634;-0.946;2023-03-29T05:45:00;8.07;;;3.20;;
56171;SDS011;42052;41.634;-0.946;2023-03-29T05:47:46;8.00;;;2.95;;
56171;SDS011;42052;41.634;-0.946;2023-03-29T05:50:32;9.85;;;3.60;;
56171;SDS011;42052;41.634;-0.946;2023-03-29T05:53:19;8.60;;;3.10;;
56171;SDS011;42052;41.634;-0.946;2023-03-29T05:56:06;7.95;;;3.10;;
56171;SDS011;42052;41.634;-0.946;2023-03-29T05:58:55;6.43;;;3.03;;
56171;SDS011;42052;41.634;-0.946;2023-03-29T06:01:43;7.40;;;2.97;;
56171;SDS011;42052;41.634;-0.946;2023-03-29T06:04:31;10.10;;;3.25;;
56171;SDS011;42052;41.634;-0.946;2023-03-29T06:07:17;7.32;;;2.78;;
56171;SDS011;42052;41.634;-0.946;2023-03-29T06:10:04;6.80;;;2.60;;
56171;SDS011;42052;41.634;-0.946;2023-03-29T06:12:53;7.07;;;3.00;;
56171;SDS011;42052;41.634;-0.946;2023-03-29T06:15:40;6.68;;;2.97;;
56171;SDS011;42052;41.634;-0.946;2023-03-29T06:18:27;6.35;;;2.63;;
56171;SDS011;42052;41.634;-0.946;2023-03-29T06:21:13;7.55;;;2.80;;
56171;SDS011;42052;41.634;-0.946;2023-03-29T06:23:59;7.28;;;2.80;;
56171;SDS011;42052;41.634;-0.946;2023-03-29T06:26:45;7.70;;;3.10;;
56171;SDS011;42052;41.634;-0.946;2023-03-29T06:29:31;6.95;;;2.97;;
56171;SDS011;42052;41.634;-0.946;2023-03-29T06:32:18;6.90;;;2.80;;
56171;SDS011;42052;41.634;-0.946;2023-03-29T06:35:04;7.70;;;2.90;;
56171;SDS011;42052;41.634;-0.946;2023-03-29T06:37:50;5.97;;;2.47;;
56171;SDS011;42052;41.634;-0.946;2023-03-29T06:40:38;7.57;;;2.75;;
56171;SDS011;42052;41.634;-0.946;2023-03-29T06:43:24;6.03;;;2.40;;
56171;SDS011;42052;41.634;-0.946;2023-03-29T06:46:10;6.20;;;2.50;;
56171;SDS011;42052;41.634;-0.946;2023-03-29T06:48:56;8.05;;;2.90;;
56171;SDS011;42052;41.634;-0.946;2023-03-29T06:51:42;6.55;;;2.50;;
56171;SDS011;42052;41.634;-0.946;2023-03-29T06:54:28;6.55;;;2.72;;
56171;SDS011;42052;41.634;-0.946;2023-03-29T06:57:15;5.20;;;2.35;;
56171;SDS011;42052;41.634;-0.946;2023-03-29T07:00:02;6.15;;;3.00;;
56171;SDS011;42052;41.634;-0.946;2023-03-29T07:03:02;7.57;;;2.67;;
56171;SDS011;42052;41.634;-0.946;2023-03-29T07:05:50;7.00;;;2.45;;
56171;SDS011;42052;41.634;-0.946;2023-03-29T07:08:37;6.30;;;2.40;;
56171;SDS011;42052;41.634;-0.946;2023-03-29T07:11:31;6.60;;;2.50;;
56171;SDS011;42052;41.634;-0.946;2023-03-29T07:14:21;6.80;;;2.70;;
56171;SDS011;42052;41.634;-0.946;2023-03-29T07:17:10;6.20;;;2.83;;
56171;SDS011;42052;41.634;-0.946;2023-03-29T07:19:56;6.50;;;2.70;;
56171;SDS011;42052;41.634;-0.946;2023-03-29T07:22:43;6.57;;;2.92;;
56171;SDS011;42052;41.634;-0.946;2023-03-29T07:25:31;5.93;;;2.53;;
56171;SDS011;42052;41.634;-0.946;2023-03-29T07:28:18;4.70;;;2.35;;
56171;SDS011;42052;41.634;-0.946;2023-03-29T07:31:10;5.70;;;2.60;;
56171;SDS011;42052;41.634;-0.946;2023-03-29T07:33:57;7.05;;;2.78;;
56171;SDS011;42052;41.634;-0.946;2023-03-29T07:36:45;6.53;;;2.58;;
56171;SDS011;42052;41.634;-0.946;2023-03-29T07:39:32;6.65;;;2.50;;
56171;SDS011;42052;41.634;-0.946;2023-03-29T07:42:18;6.35;;;2.55;;
56171;SDS011;42052;41.634;-0.946;2023-03-29T07:45:04;5.82;;;2.75;;
56171;SDS011;42052;41.634;-0.946;2023-03-29T07:47:53;6.22;;;2.40;;
56171;SDS011;42052;41.634;-0.946;2023-03-29T07:50:40;6.55;;;2.42;;
56171;SDS011;42052;41.634;-0.946;2023-03-29T07:53:27;5.82;;;2.30;;
56171;SDS011;42052;41.634;-0.946;2023-03-29T07:56:16;6.10;;;2.45;;
56171;SDS011;42052;41.634;-0.946;2023-03-29T07:59:03;4.05;;;1.98;;
56171;SDS011;42052;41.634;-0.946;2023-03-29T08:01:49;5.40;;;2.30;;
56171;SDS011;42052;41.634;-0.946;2023-03-29T08:04:36;7.57;;;2.58;;
56171;SDS011;42052;41.634;-0.946;2023-03-29T08:07:22;5.45;;;2.25;;
56171;SDS011;42052;41.634;-0.946;2023-03-29T08:10:10;5.07;;;2.25;;
56171;SDS011;42052;41.634;-0.946;2023-03-29T08:12:58;6.00;;;2.03;;
56171;SDS011;42052;41.634;-0.946;2023-03-29T08:15:45;6.03;;;2.75;;
56171;SDS011;42052;41.634;-0.946;2023-03-29T08:18:33;4.95;;;2.13;;
56171;SDS011;42052;41.634;-0.946;2023-03-29T08:21:19;5.82;;;2.38;;
56171;SDS011;42052;41.634;-0.946;2023-03-29T08:24:05;4.45;;;2.17;;
56171;SDS011;42052;41.634;-0.946;2023-03-29T08:26:51;4.65;;;2.10;;
56171;SDS011;42052;41.634;-0.946;2023-03-29T08:29:37;4.95;;;1.92;;
56171;SDS011;42052;41.634;-0.946;2023-03-29T08:32:23;4.88;;;2.05;;
56171;SDS011;42052;41.634;-0.946;2023-03-29T08:35:10;4.47;;;2.00;;
56171;SDS011;42052;41.634;-0.946;2023-03-29T08:37:56;4.68;;;1.98;;
56171;SDS011;42052;41.634;-0.946;2023-03-29T08:40:42;4.70;;;2.20;;
56171;SDS011;42052;41.634;-0.946;2023-03-29T08:46:30;4.03;;;1.90;;
56171;SDS011;42052;41.634;-0.946;2023-03-29T08:49:22;4.28;;;2.10;;
56171;SDS011;42052;41.634;-0.946;2023-03-29T08:55:14;3.25;;;1.85;;
56171;SDS011;42052;41.634;-0.946;2023-03-29T08:58:19;4.32;;;2.00;;
56171;SDS011;42052;41.634;-0.946;2023-03-29T09:01:11;4.53;;;2.10;;
56171;SDS011;42052;41.634;-0.946;2023-03-29T09:04:05;3.47;;;1.75;;
56171;SDS011;42052;41.634;-0.946;2023-03-29T09:07:02;5.25;;;1.75;;
56171;SDS011;42052;41.634;-0.946;2023-03-29T09:09:48;3.78;;;1.88;;
56171;SDS011;42052;41.634;-0.946;2023-03-29T09:12:39;6.28;;;2.10;;
56171;SDS011;42052;41.634;-0.946;2023-03-29T09:15:34;3.15;;;1.67;;
56171;SDS011;42052;41.634;-0.946;2023-03-29T09:28:12;4.55;;;1.80;;
56171;SDS011;42052;41.634;-0.946;2023-03-29T09:31:27;3.90;;;1.83;;
56171;SDS011;42052;41.634;-0.946;2023-03-29T09:37:32;2.83;;;1.45;;
56171;SDS011;42052;41.634;-0.946;2023-03-29T09:40:22;4.80;;;1.88;;
56171;SDS011;42052;41.634;-0.946;2023-03-29T09:43:13;3.55;;;1.75;;
56171;SDS011;42052;41.634;-0.946;2023-03-29T09:46:03;3.30;;;1.70;;
56171;SDS011;42052;41.634;-0.946;2023-03-29T09:49:00;4.53;;;1.83;;
56171;SDS011;42052;41.634;-0.946;2023-03-29T09:51:50;3.47;;;1.60;;
56171;SDS011;42052;41.634;-0.946;2023-03-29T09:54:40;4.03;;;1.55;;
56171;SDS011;42052;41.634;-0.946;2023-03-29T09:57:27;3.15;;;1.70;;
56171;SDS011;42052;41.634;-0.946;2023-03-29T10:00:15;5.28;;;1.60;;
56171;SDS011;42052;41.634;-0.946;2023-03-29T10:03:02;4.88;;;1.90;;
56171;SDS011;42052;41.634;-0.946;2023-03-29T10:05:48;5.00;;;1.80;;
56171;SDS011;42052;41.634;-0.946;2023-03-29T10:08:38;3.05;;;1.50;;
56171;SDS011;42052;41.634;-0.946;2023-03-29T10:14:35;2.97;;;1.65;;
56171;SDS011;42052;41.634;-0.946;2023-03-29T10:17:27;4.15;;;1.70;;
56171;SDS011;42052;41.634;-0.946;2023-03-29T10:20:18;5.65;;;1.90;;
56171;SDS011;42052;41.634;-0.946;2023-03-29T10:23:05;3.58;;;1.95;;
56171;SDS011;42052;41.634;-0.946;2023-03-29T10:25:52;3.50;;;1.70;;
56171;SDS011;42052;41.634;-0.946;2023-03-29T10:28:38;3.05;;;1.63;;
56171;SDS011;42052;41.634;-0.946;2023-03-29T10:31:27;3.33;;;1.80;;
56171;SDS011;42052;41.634;-0.946;2023-03-29T10:34:17;4.13;;;1.80;;
56171;SDS011;42052;41.634;-0.946;2023-03-29T10:37:09;2.95;;;1.60;;
56171;SDS011;42052;41.634;-0.946;2023-03-29T10:39:58;2.78;;;1.52;;
56171;SDS011;42052;41.634;-0.946;2023-03-29T10:42:48;3.35;;;1.58;;
56171;SDS011;42052;41.634;-0.946;2023-03-29T10:45:35;3.72;;;1.70;;
56171;SDS011;42052;41.634;-0.946;2023-03-29T10:48:23;4.97;;;1.85;;
56171;SDS011;42052;41.634;-0.946;2023-03-29T10:51:14;5.03;;;1.55;;
56171;SDS011;42052;41.634;-0.946;2023-03-29T10:54:03;4.90;;;1.90;;
56171;SDS011;42052;41.634;-0.946;2023-03-29T10:56:52;3.85;;;1.50;;
56171;SDS011;42052;41.634;-0.946;2023-03-29T10:59:47;3.35;;;1.55;;
56171;SDS011;42052;41.634;-0.946;2023-03-29T11:09:00;2.78;;;1.40;;
56171;SDS011;42052;41.634;-0.946;2023-03-29T11:15:45;2.97;;;1.50;;
56171;SDS011;42052;41.634;-0.946;2023-03-29T11:30:28;2.85;;;1.48;;
56171;SDS011;42052;41.634;-0.946;2023-03-29T11:36:54;5.47;;;1.67;;
56171;SDS011;42052;41.634;-0.946;2023-03-29T11:40:25;2.50;;;1.30;;
56171;SDS011;42052;41.634;-0.946;2023-03-29T11:43:29;4.03;;;1.50;;
56171;SDS011;42052;41.634;-0.946;2023-03-29T11:46:24;5.05;;;1.50;;
56171;SDS011;42052;41.634;-0.946;2023-03-29T11:52:15;4.55;;;1.60;;
56171;SDS011;42052;41.634;-0.946;2023-03-29T11:55:14;3.53;;;1.40;;
56171;SDS011;42052;41.634;-0.946;2023-03-29T12:01:04;7.88;;;1.50;;
56171;SDS011;42052;41.634;-0.946;2023-03-29T12:04:01;3.60;;;1.40;;
56171;SDS011;42052;41.634;-0.946;2023-03-29T12:07:03;4.90;;;1.55;;
56171;SDS011;42052;41.634;-0.946;2023-03-29T12:10:20;2.80;;;1.40;;
56171;SDS011;42052;41.634;-0.946;2023-03-29T12:13:14;4.30;;;1.80;;
56171;SDS011;42052;41.634;-0.946;2023-03-29T12:16:18;2.72;;;1.42;;
56171;SDS011;42052;41.634;-0.946;2023-03-29T12:19:23;3.58;;;1.40;;
56171;SDS011;42052;41.634;-0.946;2023-03-29T12:22:14;3.67;;;1.40;;
56171;SDS011;42052;41.634;-0.946;2023-03-29T12:25:00;3.75;;;1.48;;
56171;SDS011;42052;41.634;-0.946;2023-03-29T12:30:55;3.25;;;1.40;;
56171;SDS011;42052;41.634;-0.946;2023-03-29T12:37:26;3.60;;;1.60;;
56171;SDS011;42052;41.634;-0.946;2023-03-29T12:40:17;3.33;;;1.38;;
56171;SDS011;42052;41.634;-0.946;2023-03-29T12:43:05;2.30;;;1.30;;
56171;SDS011;42052;41.634;-0.946;2023-03-29T12:45:55;2.53;;;1.50;;
56171;SDS011;42052;41.634;-0.946;2023-03-29T12:49:10;3.33;;;1.25;;
56171;SDS011;42052;41.634;-0.946;2023-03-29T12:55:27;3.22;;;1.45;;
56171;SDS011;42052;41.634;-0.946;2023-03-29T12:58:36;3.03;;;1.50;;
56171;SDS011;42052;41.634;-0.946;2023-03-29T13:01:55;3.33;;;1.50;;
56171;SDS011;42052;41.634;-0.946;2023-03-29T13:04:49;3.15;;;1.40;;
56171;SDS011;42052;41.634;-0.946;2023-03-29T13:07:45;2.72;;;1.33;;
56171;SDS011;42052;41.634;-0.946;2023-03-29T13:10:41;1.83;;;1.08;;
56171;SDS011;42052;41.634;-0.946;2023-03-29T13:13:28;3.22;;;1.30;;
56171;SDS011;42052;41.634;-0.946;2023-03-29T13:16:18;4.18;;;1.50;;
56171;SDS011;42052;41.634;-0.946;2023-03-29T13:41:05;2.00;;;1.20;;
56171;SDS011;42052;41.634;-0.946;2023-03-29T13:50:18;2.45;;;1.23;;
56171;SDS011;42052;41.634;-0.946;2023-03-29T13:56:14;2.97;;;1.30;;
56171;SDS011;42052;41.634;-0.946;2023-03-29T13:59:08;2.05;;;1.27;;
56171;SDS011;42052;41.634;-0.946;2023-03-29T14:02:00;2.20;;;1.20;;
56171;SDS011;42052;41.634;-0.946;2023-03-29T14:04:48;2.85;;;1.40;;
56171;SDS011;42052;41.634;-0.946;2023-03-29T14:07:37;2.78;;;1.40;;
56171;SDS011;42052;41.634;-0.946;2023-03-29T14:10:37;2.70;;;1.40;;
56171;SDS011;42052;41.634;-0.946;2023-03-29T14:13:26;2.67;;;1.30;;
56171;SDS011;42052;41.634;-0.946;2023-03-29T14:16:13;2.60;;;1.30;;
56171;SDS011;42052;41.634;-0.946;2023-03-29T14:19:20;2.10;;;1.10;;
56171;SDS011;42052;41.634;-0.946;2023-03-29T14:22:09;1.50;;;1.10;;
56171;SDS011;42052;41.634;-0.946;2023-03-29T14:25:05;3.08;;;1.48;;
56171;SDS011;42052;41.634;-0.946;2023-03-29T14:27:57;2.85;;;1.40;;
56171;SDS011;42052;41.634;-0.946;2023-03-29T14:30:44;2.45;;;1.23;;
56171;SDS011;42052;41.634;-0.946;2023-03-29T14:33:31;2.22;;;1.27;;
56171;SDS011;42052;41.634;-0.946;2023-03-29T14:36:19;1.45;;;0.93;;
56171;SDS011;42052;41.634;-0.946;2023-03-29T14:41:57;2.00;;;1.23;;
56171;SDS011;42052;41.634;-0.946;2023-03-29T14:44:43;2.55;;;1.10;;
56171;SDS011;42052;41.634;-0.946;2023-03-29T14:47:30;2.47;;;1.25;;
56171;SDS011;42052;41.634;-0.946;2023-03-29T14:50:20;2.08;;;1.20;;
56171;SDS011;42052;41.634;-0.946;2023-03-29T14:53:17;2.47;;;1.20;;
56171;SDS011;42052;41.634;-0.946;2023-03-29T14:56:06;2.33;;;1.13;;
56171;SDS011;42052;41.634;-0.946;2023-03-29T14:58:56;3.22;;;1.20;;
56171;SDS011;42052;41.634;-0.946;2023-03-29T15:01:42;2.25;;;1.20;;
56171;SDS011;42052;41.634;-0.946;2023-03-29T15:04:32;1.70;;;1.10;;
56171;SDS011;42052;41.634;-0.946;2023-03-29T15:07:23;2.13;;;1.15;;
56171;SDS011;42052;41.634;-0.946;2023-03-29T15:10:17;2.67;;;1.20;;
56171;SDS011;42052;41.634;-0.946;2023-03-29T15:13:04;1.75;;;1.00;;
56171;SDS011;42052;41.634;-0.946;2023-03-29T15:15:56;1.45;;;1.00;;
56171;SDS011;42052;41.634;-0.946;2023-03-29T15:18:45;2.35;;;1.20;;
56171;SDS011;42052;41.634;-0.946;2023-03-29T15:21:34;2.45;;;1.30;;
56171;SDS011;42052;41.634;-0.946;2023-03-29T15:24:29;2.17;;;1.20;;
56171;SDS011;42052;41.634;-0.946;2023-03-29T15:27:17;1.30;;;1.05;;
56171;SDS011;42052;41.634;-0.946;2023-03-29T15:30:08;1.80;;;1.10;;
56171;SDS011;42052;41.634;-0.946;2023-03-29T15:33:08;2.50;;;1.30;;
56171;SDS011;42052;41.634;-0.946;2023-03-29T15:36:04;2.25;;;1.10;;
56171;SDS011;42052;41.634;-0.946;2023-03-29T15:38:52;1.45;;;0.90;;
56171;SDS011;42052;41.634;-0.946;2023-03-29T15:41:38;2.58;;;1.10;;
56171;SDS011;42052;41.634;-0.946;2023-03-29T15:44:27;2.85;;;1.27;;
56171;SDS011;42052;41.634;-0.946;2023-03-29T15:47:16;2.30;;;1.10;;
56171;SDS011;42052;41.634;-0.946;2023-03-29T15:50:02;3.15;;;1.42;;
56171;SDS011;42052;41.634;-0.946;2023-03-29T15:52:49;2.50;;;1.20;;
56171;SDS011;42052;41.634;-0.946;2023-03-29T15:55:36;2.50;;;1.05;;
56171;SDS011;42052;41.634;-0.946;2023-03-29T15:58:26;3.42;;;1.30;;
56171;SDS011;42052;41.634;-0.946;2023-03-29T16:04:18;2.00;;;1.05;;
56171;SDS011;42052;41.634;-0.946;2023-03-29T16:07:06;2.05;;;1.20;;
56171;SDS011;42052;41.634;-0.946;2023-03-29T16:09:57;4.47;;;1.20;;
56171;SDS011;42052;41.634;-0.946;2023-03-29T16:12:43;2.78;;;1.20;;
56171;SDS011;42052;41.634;-0.946;2023-03-29T16:15:30;1.70;;;1.10;;
56171;SDS011;42052;41.634;-0.946;2023-03-29T16:18:18;3.70;;;1.30;;
56171;SDS011;42052;41.634;-0.946;2023-03-29T16:21:04;1.80;;;1.00;;
56171;SDS011;42052;41.634;-0.946;2023-03-29T16:23:50;2.10;;;1.10;;
56171;SDS011;42052;41.634;-0.946;2023-03-29T16:26:36;2.20;;;1.10;;
56171;SDS011;42052;41.634;-0.946;2023-03-29T16:29:23;2.78;;;1.40;;
56171;SDS011;42052;41.634;-0.946;2023-03-29T16:32:09;2.25;;;1.15;;
56171;SDS011;42052;41.634;-0.946;2023-03-29T16:34:56;2.38;;;1.23;;
56171;SDS011;42052;41.634;-0.946;2023-03-29T16:37:42;2.97;;;1.25;;
56171;SDS011;42052;41.634;-0.946;2023-03-29T16:40:28;3.13;;;1.10;;
56171;SDS011;42052;41.634;-0.946;2023-03-29T16:43:16;3.05;;;1.33;;
56171;SDS011;42052;41.634;-0.946;2023-03-29T16:46:03;2.63;;;1.20;;
56171;SDS011;42052;41.634;-0.946;2023-03-29T16:48:50;3.17;;;1.10;;
56171;SDS011;42052;41.634;-0.946;2023-03-29T16:51:38;2.88;;;1.27;;
56171;SDS011;42052;41.634;-0.946;2023-03-29T16:54:24;4.15;;;1.15;;
56171;SDS011;42052;41.634;-0.946;2023-03-29T16:57:13;3.70;;;1.20;;
56171;SDS011;42052;41.634;-0.946;2023-03-29T17:00:00;3.70;;;1.17;;
56171;SDS011;42052;41.634;-0.946;2023-03-29T17:02:47;4.20;;;1.23;;
56171;SDS011;42052;41.634;-0.946;2023-03-29T17:05:34;3.13;;;1.27;;
56171;SDS011;42052;41.634;-0.946;2023-03-29T17:08:25;1.58;;;1.02;;
56171;SDS011;42052;41.634;-0.946;2023-03-29T17:11:11;1.90;;;1.08;;
56171;SDS011;42052;41.634;-0.946;2023-03-29T17:13:58;3.22;;;1.52;;
56171;SDS011;42052;41.634;-0.946;2023-03-29T17:16:44;2.90;;;1.10;;
56171;SDS011;42052;41.634;-0.946;2023-03-29T17:19:30;2.05;;;1.10;;
56171;SDS011;42052;41.634;-0.946;2023-03-29T17:22:17;1.63;;;1.00;;
56171;SDS011;42052;41.634;-0.946;2023-03-29T17:25:03;1.52;;;1.05;;
56171;SDS011;42052;41.634;-0.946;2023-03-29T17:27:51;2.70;;;0.85;;
56171;SDS011;42052;41.634;-0.946;2023-03-29T17:30:38;2.30;;;1.20;;
56171;SDS011;42052;41.634;-0.946;2023-03-29T17:33:25;1.88;;;0.98;;
56171;SDS011;42052;41.634;-0.946;2023-03-29T17:36:11;1.63;;;1.10;;
56171;SDS011;42052;41.634;-0.946;2023-03-29T17:38:57;1.88;;;1.15;;
56171;SDS011;42052;41.634;-0.946;2023-03-29T17:41:45;2.17;;;0.90;;
56171;SDS011;42052;41.634;-0.946;2023-03-29T17:44:31;2.75;;;1.00;;
56171;SDS011;42052;41.634;-0.946;2023-03-29T17:47:17;4.68;;;2.10;;
56171;SDS011;42052;41.634;-0.946;2023-03-29T17:50:04;5.82;;;2.33;;
56171;SDS011;42052;41.634;-0.946;2023-03-29T17:52:51;7.30;;;3.40;;
56171;SDS011;42052;41.634;-0.946;2023-03-29T17:55:38;5.25;;;2.63;;
56171;SDS011;42052;41.634;-0.946;2023-03-29T17:58:25;5.03;;;2.67;;
56171;SDS011;42052;41.634;-0.946;2023-03-29T18:01:11;5.78;;;2.95;;
56171;SDS011;42052;41.634;-0.946;2023-03-29T18:03:58;5.28;;;2.40;;
56171;SDS011;42052;41.634;-0.946;2023-03-29T18:06:44;5.82;;;2.58;;
56171;SDS011;42052;41.634;-0.946;2023-03-29T18:09:31;4.70;;;2.60;;
56171;SDS011;42052;41.634;-0.946;2023-03-29T18:12:17;5.18;;;2.47;;
56171;SDS011;42052;41.634;-0.946;2023-03-29T18:15:03;4.95;;;2.53;;
56171;SDS011;42052;41.634;-0.946;2023-03-29T18:17:50;6.10;;;2.60;;
56171;SDS011;42052;41.634;-0.946;2023-03-29T18:20:36;4.32;;;2.33;;
56171;SDS011;42052;41.634;-0.946;2023-03-29T18:23:22;5.30;;;2.40;;
56171;SDS011;42052;41.634;-0.946;2023-03-29T18:26:08;5.13;;;2.50;;
56171;SDS011;42052;41.634;-0.946;2023-03-29T18:28:55;4.85;;;2.53;;
56171;SDS011;42052;41.634;-0.946;2023-03-29T18:31:42;5.43;;;2.40;;
56171;SDS011;42052;41.634;-0.946;2023-03-29T18:34:30;5.13;;;2.40;;
56171;SDS011;42052;41.634;-0.946;2023-03-29T18:37:16;4.55;;;2.40;;
56171;SDS011;42052;41.634;-0.946;2023-03-29T18:40:03;5.25;;;2.70;;
56171;SDS011;42052;41.634;-0.946;2023-03-29T18:42:52;4.45;;;2.50;;